createdAt,value
2022-07-31T00:04:42.827Z,98445.19
2022-07-31T00:09:53.228Z,98434.88
2022-07-31T00:14:56.496Z,98436.91
2022-07-31T00:19:58.283Z,98447.03
2022-07-31T00:25:25.685Z,98447.25
2022-07-31T00:30:28.085Z,98445.06
2022-07-31T00:35:30.017Z,98437.38
2022-07-31T00:40:31.888Z,98447.88
2022-07-31T00:45:34.604Z,98441.22
2022-07-31T00:50:39.739Z,98438.22
2022-07-31T00:55:51.869Z,98440.66
2022-07-31T01:00:54.671Z,98438.47
2022-07-31T01:05:56.972Z,98446.34
2022-07-31T01:11:02.738Z,98441.91
2022-07-31T01:16:14.426Z,98447.38
2022-07-31T01:21:25.830Z,98442.53
2022-07-31T01:26:49.903Z,98447.59
2022-07-31T01:31:58.944Z,98446.22
2022-07-31T01:37:17.582Z,98441.16
2022-07-31T01:42:22.087Z,98444.22
2022-07-31T01:47:27.860Z,98442.56
2022-07-31T01:52:31.800Z,98444.38
2022-07-31T01:57:36.307Z,98437.94
2022-07-31T02:02:42.423Z,98445.22
2022-07-31T02:07:47.274Z,98438.34
2022-07-31T02:12:51.206Z,98433.09
2022-07-31T02:17:54.737Z,98425.22
2022-07-31T02:23:01.656Z,98421.78
2022-07-31T02:28:10.291Z,98417.31
2022-07-31T02:33:21.961Z,98410.47
2022-07-31T02:38:26.637Z,98413.50
2022-07-31T02:43:33.390Z,98415.75
2022-07-31T02:48:44.513Z,98411.94
2022-07-31T02:53:48.961Z,98404.25
2022-07-31T02:58:51.598Z,98405.47
2022-07-31T03:03:59.845Z,98400.44
2022-07-31T03:09:04.481Z,98393.16
2022-07-31T03:14:12.187Z,98387.75
2022-07-31T03:19:15.525Z,98381.09
2022-07-31T03:24:17.967Z,98382.31
2022-07-31T03:29:42.568Z,98379.06
2022-07-31T03:34:42.066Z,98382.13
2022-07-31T03:39:44.016Z,98377.88
2022-07-31T03:44:48.800Z,98374.66
2022-07-31T03:49:51.300Z,98383.56
2022-07-31T03:54:54.271Z,98380.31
2022-07-31T04:05:21.046Z,98378.09
2022-07-31T04:10:23.068Z,98376.88
2022-07-31T04:15:25.626Z,98386.97
2022-07-31T04:20:27.549Z,98384.94
2022-07-31T04:25:29.581Z,98394.00
2022-07-31T04:30:44.536Z,98389.13
2022-07-31T04:35:48.064Z,98388.72
2022-07-31T04:40:54.741Z,98392.34
2022-07-31T04:46:03.786Z,98388.28
2022-07-31T04:51:20.976Z,98394.72
2022-07-31T04:56:42.240Z,98398.94
2022-07-31T05:01:45.094Z,98401.13
2022-07-31T05:06:51.500Z,98405.34
2022-07-31T05:11:53.862Z,98410.13
2022-07-31T05:16:57.254Z,98408.28
2022-07-31T05:22:02.383Z,98417.34
2022-07-31T05:27:07.413Z,98410.22
2022-07-31T05:32:09.306Z,98412.00
2022-07-31T05:37:12.391Z,98419.84
2022-07-31T05:42:16.053Z,98412.94
2022-07-31T05:47:40.073Z,98413.25
2022-07-31T05:52:43.120Z,98422.50
2022-07-31T05:58:23.278Z,98422.63
2022-07-31T06:03:30.121Z,98420.69
2022-07-31T06:08:37.996Z,98418.59
2022-07-31T06:13:42.924Z,98413.44
2022-07-31T06:18:57.079Z,98412.34
2022-07-31T06:23:59.073Z,98405.31
2022-07-31T06:29:07.654Z,98404.94
2022-07-31T06:34:09.500Z,98404.78
2022-07-31T06:39:17.112Z,98402.47
2022-07-31T06:44:22.161Z,98392.22
2022-07-31T06:49:42.885Z,98394.00
2022-07-31T06:54:45.290Z,98399.41
2022-07-31T06:59:47.318Z,98402.00
2022-07-31T07:05:04.716Z,98406.72
2022-07-31T07:10:09.759Z,98405.72
2022-07-31T07:15:32.210Z,98403.00
2022-07-31T07:20:35.850Z,98407.13
2022-07-31T07:25:37.825Z,98397.16
2022-07-31T07:30:41.968Z,98397.72
2022-07-31T07:35:44.254Z,98405.41
2022-07-31T07:40:52.017Z,98398.03
2022-07-31T07:45:54.158Z,98393.00
2022-07-31T07:50:57.794Z,98385.28
2022-07-31T07:56:05.970Z,98382.75
2022-07-31T08:01:28.603Z,98375.16
2022-07-31T08:06:41.345Z,98372.00
2022-07-31T08:11:43.499Z,98379.75
2022-07-31T08:16:55.957Z,98372.00
2022-07-31T08:21:58.066Z,98372.41
2022-07-31T08:27:18.409Z,98366.84
2022-07-31T08:32:26.178Z,98357.09
2022-07-31T08:38:02.641Z,98352.53
2022-07-31T08:42:55.928Z,98360.63
2022-07-31T08:48:07.697Z,98356.59
2022-07-31T08:53:20.753Z,98358.09
2022-07-31T08:58:36.069Z,98354.50
2022-07-31T09:03:41.522Z,98363.53
2022-07-31T09:08:47.870Z,98350.34
2022-07-31T09:14:02.599Z,98347.22
2022-07-31T09:19:52.049Z,98341.47
2022-07-31T09:24:53.360Z,98325.63
2022-07-31T09:29:57.329Z,98329.56
2022-07-31T09:35:22.848Z,98328.22
2022-07-31T09:40:35.480Z,98321.84
2022-07-31T09:45:49.034Z,98320.81
2022-07-31T09:50:58.822Z,98318.28
2022-07-31T09:56:08.498Z,98311.78
2022-07-31T10:01:13.092Z,98313.97
2022-07-31T10:06:16.921Z,98310.34
2022-07-31T10:11:23.443Z,98302.56
2022-07-31T10:16:35.174Z,98302.88
2022-07-31T10:22:01.847Z,98312.53
2022-07-31T10:27:09.425Z,98296.88
2022-07-31T10:32:14.156Z,98294.56
2022-07-31T10:37:38.922Z,98298.06
2022-07-31T10:43:18.009Z,98282.59
2022-07-31T10:48:27.565Z,98302.75
2022-07-31T10:53:51.641Z,98298.50
2022-07-31T10:59:16.708Z,98295.44
2022-07-31T11:04:34.160Z,98277.53
2022-07-31T11:09:51.603Z,98279.16
2022-07-31T11:15:26.617Z,98276.78
2022-07-31T11:21:22.723Z,98277.97
2022-07-31T11:26:33.743Z,98267.94
2022-07-31T11:31:44.789Z,98266.84
2022-07-31T11:36:51.048Z,98271.78
2022-07-31T11:41:54.501Z,98271.16
2022-07-31T11:46:56.520Z,98262.50
2022-07-31T11:52:03.056Z,98266.94
2022-07-31T11:57:07.031Z,98265.84
2022-07-31T12:02:13.365Z,98267.38
2022-07-31T12:07:16.236Z,98263.38
2022-07-31T12:12:19.453Z,98250.44
2022-07-31T12:17:23.023Z,98233.56
2022-07-31T12:22:25.543Z,98231.50
2022-07-31T12:27:28.141Z,98227.22
2022-07-31T12:32:30.010Z,98240.00
2022-07-31T12:37:46.344Z,98230.94
2022-07-31T12:42:48.563Z,98231.72
2022-07-31T12:47:54.622Z,98222.41
2022-07-31T12:53:00.918Z,98219.50
2022-07-31T12:58:02.839Z,98213.97
2022-07-31T13:03:04.724Z,98202.56
2022-07-31T13:08:08.852Z,98192.44
2022-07-31T13:13:10.851Z,98187.44
2022-07-31T13:18:12.737Z,98190.06
2022-07-31T13:23:14.634Z,98176.78
2022-07-31T13:28:16.591Z,98186.06
2022-07-31T13:33:18.549Z,98180.47
2022-07-31T13:38:20.420Z,98180.22
2022-07-31T13:43:22.419Z,98157.34
2022-07-31T13:48:24.383Z,98160.81
2022-07-31T13:53:26.420Z,98155.22
2022-07-31T13:58:28.413Z,98155.50
2022-07-31T14:03:30.842Z,98158.97
2022-07-31T14:08:49.841Z,98162.44
2022-07-31T14:13:53.282Z,98155.50
2022-07-31T14:18:55.454Z,98158.41
2022-07-31T14:23:57.633Z,98159.19
2022-07-31T14:29:02.198Z,98150.94
2022-07-31T14:34:06.271Z,98161.31
2022-07-31T14:39:08.221Z,98161.03
2022-07-31T14:44:10.283Z,98158.91
2022-07-31T14:49:13.154Z,98146.63
2022-07-31T14:54:15.207Z,98148.78
2022-07-31T14:59:17.600Z,98139.44
2022-07-31T15:04:19.925Z,98145.81
2022-07-31T15:09:21.940Z,98135.69
2022-07-31T15:14:24.129Z,98142.06
2022-07-31T15:19:26.484Z,98137.25
2022-07-31T15:24:28.664Z,98138.84
2022-07-31T15:30:00.248Z,98142.06
2022-07-31T15:34:53.385Z,98143.16
2022-07-31T15:40:02.062Z,98134.63
2022-07-31T15:45:12.134Z,98139.44
2022-07-31T15:50:20.459Z,98132.81
2022-07-31T15:55:22.882Z,98130.13
2022-07-31T16:00:25.872Z,98130.41
2022-07-31T16:05:36.102Z,98131.47
2022-07-31T16:10:39.434Z,98128.00
2022-07-31T16:15:41.497Z,98120.28
2022-07-31T16:20:43.659Z,98120.81
2022-07-31T16:25:46.014Z,98116.56
2022-07-31T16:30:48.136Z,98106.97
2022-07-31T16:35:50.178Z,98107.78
2022-07-31T16:40:53.658Z,98111.81
2022-07-31T16:45:57.212Z,98103.84
2022-07-31T16:50:59.303Z,98112.34
2022-07-31T16:56:02.085Z,98105.44
2022-07-31T17:01:04.506Z,98103.88
2022-07-31T17:06:06.672Z,98102.56
2022-07-31T17:11:08.653Z,98100.72
2022-07-31T17:16:10.805Z,98090.06
2022-07-31T17:21:13.121Z,98087.94
2022-07-31T17:26:21.568Z,98096.44
2022-07-31T17:31:32.948Z,98096.44
2022-07-31T17:36:36.084Z,98103.34
2022-07-31T17:41:38.026Z,98100.44
2022-07-31T17:46:43.849Z,98099.63
2022-07-31T17:52:07.990Z,98106.81
2022-07-31T17:57:14.530Z,98100.97
2022-07-31T18:02:17.898Z,98108.19
2022-07-31T18:07:22.250Z,98103.38
2022-07-31T18:12:25.896Z,98102.06
2022-07-31T18:17:31.084Z,98114.53
2022-07-31T18:22:35.107Z,98116.66
2022-07-31T18:27:54.558Z,98117.13
2022-07-31T18:32:56.561Z,98116.06
2022-07-31T18:37:58.724Z,98119.22
2022-07-31T18:43:01.064Z,98116.28
2022-07-31T18:48:03.489Z,98121.03
2022-07-31T18:53:05.426Z,98117.28
2022-07-31T18:58:07.708Z,98119.13
2022-07-31T19:03:09.992Z,98122.84
2022-07-31T19:08:12.009Z,98124.97
2022-07-31T19:13:17.239Z,98123.63
2022-07-31T19:18:28.120Z,98124.16
2022-07-31T19:23:30.929Z,98128.91
2022-07-31T19:28:33.444Z,98139.78
2022-07-31T19:33:36.202Z,98137.66
2022-07-31T19:38:41.034Z,98143.47
2022-07-31T19:43:46.827Z,98150.06
2022-07-31T19:48:49.967Z,98154.28
2022-07-31T19:53:51.987Z,98156.13
2022-07-31T19:58:53.840Z,98153.94
2022-07-31T20:03:57.987Z,98162.66
2022-07-31T20:08:59.942Z,98155.44
2022-07-31T20:14:01.930Z,98157.50
2022-07-31T20:19:03.958Z,98137.84
2022-07-31T20:24:06.834Z,98132.50
2022-07-31T20:29:09.005Z,98128.75
2022-07-31T20:34:11.075Z,98135.09
2022-07-31T20:39:12.957Z,98128.69
2022-07-31T20:44:14.970Z,98120.19
2022-07-31T20:49:19.469Z,98114.56
2022-07-31T20:54:36.463Z,98122.78
2022-07-31T20:59:38.264Z,98118.78
2022-07-31T21:04:40.089Z,98115.56
2022-07-31T21:09:42.973Z,98108.41
2022-07-31T21:14:44.805Z,98103.66
2022-07-31T21:19:46.620Z,98104.16
2022-07-31T21:24:49.715Z,98097.78
2022-07-31T21:29:55.177Z,98099.88
2022-07-31T21:34:59.229Z,98099.63
2022-07-31T21:40:01.077Z,98099.34
2022-07-31T21:45:04.982Z,98097.50
2022-07-31T21:50:09.845Z,98108.34
2022-07-31T21:55:11.658Z,98113.91
2022-07-31T22:00:14.436Z,98115.19
2022-07-31T22:05:35.157Z,98114.59
2022-07-31T22:10:37.059Z,98114.31
2022-07-31T22:15:58.649Z,98121.72
2022-07-31T22:21:05.880Z,98125.91
2022-07-31T22:26:08.043Z,98120.06
2022-07-31T22:31:10.451Z,98116.63
2022-07-31T22:36:13.294Z,98120.06
2022-07-31T22:41:15.269Z,98121.13
2022-07-31T22:46:17.309Z,98125.63
2022-07-31T22:51:19.257Z,98124.03
2022-07-31T22:56:21.303Z,98117.06
2022-07-31T23:01:23.263Z,98119.66
2022-07-31T23:06:31.358Z,98126.03
2022-07-31T23:11:35.055Z,98111.69
2022-07-31T23:16:36.934Z,98101.28
2022-07-31T23:21:38.821Z,98113.97
2022-07-31T23:26:40.927Z,98108.94
2022-07-31T23:31:42.778Z,98112.63
2022-07-31T23:36:44.861Z,98106.19
2022-07-31T23:42:05.663Z,98107.50
2022-07-31T23:47:08.312Z,98112.00
2022-07-31T23:52:10.971Z,98110.38
2022-07-31T23:57:12.845Z,98102.69
